Pelican of London — MWAQ — position and weather

sailwx.info

Track history (hours):
 
Tides and Currents Weather Stations Pressure Air Temp Water Temp Dewpoint Dewpoint Depression Visibility Wind Speed Wind Dir Waves Ship Positions

Pelican of London

Ship's website: http://www.adventureundersail.com/

Last reported at 2020-Sep-26 07:30 UTC. Time now 2020-Sep-26 07:41 UTC.
Position N 51°30' W 000°01'.

Length 35 m; draft 3.9 m.

Type: Sailing vessel. MMSI: 235057366.

Date/timePositionNaut miles runAvg speedWind from/ knotsBaromVisibWave heightAir tempDewpointWater temp
2020-Sep-26 07:30N 51°30' W 000°01'0 0.0
2020-Sep-26 06:59N 51°30' W 000°01'0 0.1
2020-Sep-26 06:26N 51°30' W 000°01'0 0.1
2020-Sep-26 05:30N 51°30' W 000°01'0 0.0
2020-Sep-26 00:29N 51°30' W 000°01'0 0.1
2020-Sep-25 23:28N 51°30' W 000°01'0 0.0
2020-Sep-25 20:27N 51°30' W 000°01'0 0.2
2020-Sep-25 19:30N 51°30' W 000°01'0 0.0
2020-Sep-25 14:03N 51°30' W 000°01'0 0.0
2020-Sep-24 16:55N 51°30' W 000°01'0 0.0
2020-Sep-24 15:46N 51°30' W 000°01'0 0.0
2020-Sep-24 13:54N 51°30' W 000°01'0 0.0
2020-Sep-24 06:11N 51°30' W 000°01'0 0.0
2020-Sep-24 02:23N 51°30' W 000°01'0 0.0
2020-Sep-24 01:40N 51°30' W 000°01'0 0.0
2020-Sep-23 21:28N 51°30' W 000°01'0 0.0
2020-Sep-23 20:00N 51°30' W 000°01'0 0.1
2020-Sep-23 19:24N 51°30' W 000°01'0 0.1
2020-Sep-23 18:36N 51°30' W 000°01'0 0.0
2020-Sep-23 14:31N 51°30' W 000°01'0 0.0
2020-Sep-23 13:36N 51°30' W 000°01'0 0.0
2020-Sep-23 11:52N 51°30' W 000°01'0 0.0
2020-Sep-23 10:20N 51°30' W 000°01'0 0.0
2020-Sep-23 01:57N 51°30' W 000°01'0 0.0
2020-Sep-22 16:30N 51°30' W 000°01'0 0.0
2020-Sep-22 15:59N 51°30' W 000°01'0 0.2
2020-Sep-22 15:30N 51°30' W 000°01'0 0.0
2020-Sep-22 09:52N 51°30' W 000°01'0 0.0
2020-Sep-22 09:08N 51°30' W 000°01'0 0.0
2020-Sep-22 07:55N 51°30' W 000°01'0 0.2
2020-Sep-22 07:29N 51°30' W 000°01'0 0.2
2020-Sep-22 07:00N 51°30' W 000°01'0 0.0
2020-Sep-22 05:00N 51°30' W 000°01'0 0.0
2020-Sep-21 22:59N 51°30' W 000°01'0 0.0
2020-Sep-21 17:26N 51°30' W 000°01'1 0.2
2020-Sep-21 13:47N 51°29' W 000°02'12 3.6
2020-Sep-21 10:28N 51°28' E 000°18'0 0.0
2020-Sep-21 08:30N 51°28' E 000°18'0 0.0
2020-Sep-21 07:30N 51°28' E 000°18'0 0.0
2020-Sep-21 05:31N 51°28' E 000°18'0 0.0
2020-Sep-21 01:30N 51°28' E 000°18'0 0.0
2020-Sep-21 00:30N 51°28' E 000°18'0 0.0
2020-Sep-20 23:30N 51°28' E 000°18'0 0.0
2020-Sep-20 19:30N 51°28' E 000°18'0 0.0
2020-Sep-20 19:00N 51°28' E 000°18'0 0.0
2020-Sep-20 18:00N 51°28' E 000°18'0 0.0
2020-Sep-20 17:30N 51°28' E 000°18'0 0.0
2020-Sep-20 17:00N 51°28' E 000°18'0 0.0
2020-Sep-20 16:30N 51°28' E 000°18'0 0.0
2020-Sep-20 16:00N 51°28' E 000°18'0 0.0
2020-Sep-20 14:30N 51°28' E 000°18'0 0.0
2020-Sep-20 12:30N 51°28' E 000°18'0 0.0
2020-Sep-20 12:00N 51°28' E 000°18'0 0.0
2020-Sep-20 11:30N 51°28' E 000°18'0 0.0
2020-Sep-20 10:30N 51°28' E 000°18'0 0.0
2020-Sep-20 08:30N 51°28' E 000°18'0 0.0
2020-Sep-20 07:00N 51°28' E 000°18'0 0.0
2020-Sep-20 06:00N 51°28' E 000°18'0 0.0
2020-Sep-20 00:00N 51°28' E 000°18'0 0.0
2020-Sep-19 20:31N 51°28' E 000°18'0 0.0
2020-Sep-19 19:01N 51°28' E 000°18'0 0.0
2020-Sep-19 17:30N 51°28' E 000°18'0 0.0
2020-Sep-19 16:30N 51°28' E 000°18'0 0.0
2020-Sep-19 14:00N 51°28' E 000°18'8 2.8
2020-Sep-19 11:00N 51°30' E 000°30'8 7.8
2020-Sep-19 10:00N 51°31' E 000°43'0 0.0
2020-Sep-19 07:30N 51°31' E 000°43'0 0.1
2020-Sep-19 07:00N 51°31' E 000°43'0 0.0
2020-Sep-19 05:01N 51°31' E 000°43'0 0.0
2020-Sep-19 04:30N 51°31' E 000°43'0 0.0
2020-Sep-19 02:30N 51°31' E 000°43'0 0.0
2020-Sep-19 01:30N 51°31' E 000°43'0 0.0
2020-Sep-18 23:30N 51°31' E 000°43'0 0.0
2020-Sep-18 22:30N 51°31' E 000°43'0 0.0
2020-Sep-18 20:00N 51°31' E 000°43'0 0.1
2020-Sep-18 19:00N 51°31' E 000°43'0 0.0
2020-Sep-18 18:00N 51°31' E 000°43'0 0.0
2020-Sep-18 15:00N 51°31' E 000°43'7 4.7
2020-Sep-18 13:30N 51°30' E 000°54'24 8.1
2020-Sep-18 10:30N 51°45' E 001°25'26 8.8
2020-Sep-18 07:30N 52°06' E 001°50'5 9.4
2020-Sep-18 07:00N 52°11' E 001°52'16 7.9
2020-Sep-18 05:00N 52°26' E 001°59'10 5.2
2020-Sep-18 03:00N 52°36' E 002°06'7 4.8
2020-Sep-18 01:30N 52°42' E 002°12'3 5.0
2020-Sep-18 01:00N 52°44' E 002°13'29 5.3
2020-Sep-17 19:31N 53°08' E 001°45'17 6.8
2020-Sep-17 17:00N 53°21' E 001°26'9 6.1
2020-Sep-17 15:31N 53°28' E 001°16'6 5.9
2020-Sep-17 14:30N 53°33' E 001°11'13 5.1
2020-Sep-17 11:57N 53°44' E 000°60'10 2.6
2020-Sep-17 07:58N 53°53' E 000°50'3 5.6
2020-Sep-17 07:30N 53°55' E 000°47'3 6.0
2020-Sep-17 07:00N 53°57' E 000°44'3 6.3
2020-Sep-17 06:29N 53°59' E 000°40'12 7.8
2020-Sep-17 05:00N 54°06' E 000°24'43 4.8 060 / 61030.910.8 13.3 9.112.5
2020-Sep-16 20:09N 54°43' W 000°11'34 4.7
2020-Sep-16 13:00N 55°12' W 000°42'16 5.3 060 / 151029.710.8 13.910.713.2
2020-Sep-16 10:00N 55°24' W 001°00'   040 / 201029.410.8 13.310.8
Track history (hours):
 
Tides and Currents Weather Stations Pressure Air Temp Water Temp Dewpoint Dewpoint Depression Visibility Wind Speed Wind Dir Waves Ship Positions

Pelican of London

Ship's website: http://www.adventureundersail.com/

Last reported at 2020-Sep-26 07:30 UTC. Time now 2020-Sep-26 07:41 UTC.
Position N 51°30' W 000°01'.

Length 35 m; draft 3.9 m.

Type: Sailing vessel. MMSI: 235057366.

Date/timePositionNaut miles runAvg speedWind from/ knotsBaromVisibWave heightAir tempDewpointWater temp
2020-Sep-26 07:30N 51°30' W 000°01'0 0.0
2020-Sep-26 06:59N 51°30' W 000°01'0 0.1
2020-Sep-26 06:26N 51°30' W 000°01'0 0.1
2020-Sep-26 05:30N 51°30' W 000°01'0 0.0
2020-Sep-26 00:29N 51°30' W 000°01'0 0.1
2020-Sep-25 23:28N 51°30' W 000°01'0 0.0
2020-Sep-25 20:27N 51°30' W 000°01'0 0.2
2020-Sep-25 19:30N 51°30' W 000°01'0 0.0
2020-Sep-25 14:03N 51°30' W 000°01'0 0.0
2020-Sep-24 16:55N 51°30' W 000°01'0 0.0
2020-Sep-24 15:46N 51°30' W 000°01'0 0.0
2020-Sep-24 13:54N 51°30' W 000°01'0 0.0
2020-Sep-24 06:11N 51°30' W 000°01'0 0.0
2020-Sep-24 02:23N 51°30' W 000°01'0 0.0
2020-Sep-24 01:40N 51°30' W 000°01'0 0.0
2020-Sep-23 21:28N 51°30' W 000°01'0 0.0
2020-Sep-23 20:00N 51°30' W 000°01'0 0.1
2020-Sep-23 19:24N 51°30' W 000°01'0 0.1
2020-Sep-23 18:36N 51°30' W 000°01'0 0.0
2020-Sep-23 14:31N 51°30' W 000°01'0 0.0
2020-Sep-23 13:36N 51°30' W 000°01'0 0.0
2020-Sep-23 11:52N 51°30' W 000°01'0 0.0
2020-Sep-23 10:20N 51°30' W 000°01'0 0.0
2020-Sep-23 01:57N 51°30' W 000°01'0 0.0
2020-Sep-22 16:30N 51°30' W 000°01'0 0.0
2020-Sep-22 15:59N 51°30' W 000°01'0 0.2
2020-Sep-22 15:30N 51°30' W 000°01'0 0.0
2020-Sep-22 09:52N 51°30' W 000°01'0 0.0
2020-Sep-22 09:08N 51°30' W 000°01'0 0.0
2020-Sep-22 07:55N 51°30' W 000°01'0 0.2
2020-Sep-22 07:29N 51°30' W 000°01'0 0.2
2020-Sep-22 07:00N 51°30' W 000°01'0 0.0
2020-Sep-22 05:00N 51°30' W 000°01'0 0.0
2020-Sep-21 22:59N 51°30' W 000°01'0 0.0
2020-Sep-21 17:26N 51°30' W 000°01'1 0.2
2020-Sep-21 13:47N 51°29' W 000°02'12 3.6
2020-Sep-21 10:28N 51°28' E 000°18'0 0.0
2020-Sep-21 08:30N 51°28' E 000°18'0 0.0
2020-Sep-21 07:30N 51°28' E 000°18'0 0.0
2020-Sep-21 05:31N 51°28' E 000°18'0 0.0
2020-Sep-21 01:30N 51°28' E 000°18'0 0.0
2020-Sep-21 00:30N 51°28' E 000°18'0 0.0
2020-Sep-20 23:30N 51°28' E 000°18'0 0.0
2020-Sep-20 19:30N 51°28' E 000°18'0 0.0
2020-Sep-20 19:00N 51°28' E 000°18'0 0.0
2020-Sep-20 18:00N 51°28' E 000°18'0 0.0
2020-Sep-20 17:30N 51°28' E 000°18'0 0.0
2020-Sep-20 17:00N 51°28' E 000°18'0 0.0
2020-Sep-20 16:30N 51°28' E 000°18'0 0.0
2020-Sep-20 16:00N 51°28' E 000°18'0 0.0
2020-Sep-20 14:30N 51°28' E 000°18'0 0.0
2020-Sep-20 12:30N 51°28' E 000°18'0 0.0
2020-Sep-20 12:00N 51°28' E 000°18'0 0.0
2020-Sep-20 11:30N 51°28' E 000°18'0 0.0
2020-Sep-20 10:30N 51°28' E 000°18'0 0.0
2020-Sep-20 08:30N 51°28' E 000°18'0 0.0
2020-Sep-20 07:00N 51°28' E 000°18'0 0.0
2020-Sep-20 06:00N 51°28' E 000°18'0 0.0
2020-Sep-20 00:00N 51°28' E 000°18'0 0.0
2020-Sep-19 20:31N 51°28' E 000°18'0 0.0
2020-Sep-19 19:01N 51°28' E 000°18'0 0.0
2020-Sep-19 17:30N 51°28' E 000°18'0 0.0
2020-Sep-19 16:30N 51°28' E 000°18'0 0.0
2020-Sep-19 14:00N 51°28' E 000°18'8 2.8
2020-Sep-19 11:00N 51°30' E 000°30'8 7.8
2020-Sep-19 10:00N 51°31' E 000°43'0 0.0
2020-Sep-19 07:30N 51°31' E 000°43'0 0.1
2020-Sep-19 07:00N 51°31' E 000°43'0 0.0
2020-Sep-19 05:01N 51°31' E 000°43'0 0.0
2020-Sep-19 04:30N 51°31' E 000°43'0 0.0
2020-Sep-19 02:30N 51°31' E 000°43'0 0.0
2020-Sep-19 01:30N 51°31' E 000°43'0 0.0
2020-Sep-18 23:30N 51°31' E 000°43'0 0.0
2020-Sep-18 22:30N 51°31' E 000°43'0 0.0
2020-Sep-18 20:00N 51°31' E 000°43'0 0.1
2020-Sep-18 19:00N 51°31' E 000°43'0 0.0
2020-Sep-18 18:00N 51°31' E 000°43'0 0.0
2020-Sep-18 15:00N 51°31' E 000°43'7 4.7
2020-Sep-18 13:30N 51°30' E 000°54'24 8.1
2020-Sep-18 10:30N 51°45' E 001°25'26 8.8
2020-Sep-18 07:30N 52°06' E 001°50'5 9.4
2020-Sep-18 07:00N 52°11' E 001°52'16 7.9
2020-Sep-18 05:00N 52°26' E 001°59'10 5.2
2020-Sep-18 03:00N 52°36' E 002°06'7 4.8
2020-Sep-18 01:30N 52°42' E 002°12'3 5.0
2020-Sep-18 01:00N 52°44' E 002°13'29 5.3
2020-Sep-17 19:31N 53°08' E 001°45'17 6.8
2020-Sep-17 17:00N 53°21' E 001°26'9 6.1
2020-Sep-17 15:31N 53°28' E 001°16'6 5.9
2020-Sep-17 14:30N 53°33' E 001°11'13 5.1
2020-Sep-17 11:57N 53°44' E 000°60'10 2.6
2020-Sep-17 07:58N 53°53' E 000°50'3 5.6
2020-Sep-17 07:30N 53°55' E 000°47'3 6.0
2020-Sep-17 07:00N 53°57' E 000°44'3 6.3
2020-Sep-17 06:29N 53°59' E 000°40'12 7.8
2020-Sep-17 05:00N 54°06' E 000°24'43 4.8 060 / 61030.910.8 13.3 9.112.5
2020-Sep-16 20:09N 54°43' W 000°11'34 4.7
2020-Sep-16 13:00N 55°12' W 000°42'16 5.3 060 / 151029.710.8 13.910.713.2
2020-Sep-16 10:00N 55°24' W 001°00'   040 / 201029.410.8 13.310.8

Dump ship's entire track history